Nearby METAR Reports

 

KAGC - Pittsburgh/Alleg, Pennsylvania, USA
Distance from station: N 14mi, 23km
Updated: Thu, May-13-2021 5:53pm EDT
Overcast
Overcast
 Wind from calm
Wind: Calm
Temperature: 63°F , 17°C
Dew Point: 28°F , -2°C
Humidity: 27%
Barometer: 30.25 inHg , 1024.4 hPa
Clouds: Overcast
Visibility: 10 miles , 16 km
Cloud details: Mostly cloudy 8500 ft
Overcast 11000 ft
2021/05/13 21:53 KAGC 132153Z 00000KT 10SM BKN085 OVC110 17/M02 A3025 RMK AO2 SLP250 T01721017
KAFJ - Washington, Pennsylvania, USA
Distance from station: W 17mi, 28km
Updated: Thu, May-13-2021 5:56pm EDT
Overcast
Overcast
 Wind from NNW
Wind: NNW 6 mph , 9 km/h
Temperature: 63°F , 17°C
Dew Point: 34°F , 1°C
Humidity: 34%
Barometer: 30.30 inHg , 1026.1 hPa
Clouds: Overcast
Visibility: 10 miles , 16 km
Cloud details: Overcast 11000 ft
2021/05/13 21:56 KAFJ 132156Z AUTO 33005KT 10SM OVC110 17/01 A3030 RMK AO2 SLP263 T01670006
 
KLBE - Latrobe, Pennsylvania, USA
Distance from station: ENE 30mi, 48km
Updated: Thu, May-13-2021 6:47pm EDT
Partly cloudy
Partly cloudy
 Wind from WNW
Wind: WNW 6 mph , 9 km/h
Temperature: 61°F , 16°C
Dew Point: 30°F , -1°C
Humidity: 31%
Barometer: 30.25 inHg , 1024.4 hPa
Clouds: Partly cloudy
Visibility: 10 miles , 16 km
Cloud details: Partly cloudy 10000 ft
2021/05/13 22:47 KLBE 132247Z 30005KT 10SM SCT100 16/M01 A3025
KPIT - Pittsburgh, Pennsylvania, USA
Distance from station: NW 30mi, 48km
Updated: Thu, May-13-2021 5:51pm EDT
Mostly cloudy
Mostly cloudy
 Wind from calm
Wind: Calm
Temperature: 63°F , 17°C
Dew Point: 27°F , -3°C
Humidity: 25%
Barometer: 30.26 inHg , 1024.7 hPa
Clouds: Mostly cloudy
Visibility: 10 miles , 16 km
Cloud details: Few Clouds 7000 ft
Mostly cloudy 10000 ft
2021/05/13 21:51 KPIT 132151Z 00000KT 10SM FEW070 BKN100 17/M03 A3026 RMK AO2 SLP258 T01671028
 
KMGW - Morgantown, West Virginia, USA
Distance from station: S 34mi, 55km
Updated: Thu, May-13-2021 5:53pm EDT
Few Clouds
Few Clouds
 Wind from varies
Wind: varies 7 mph , 11 km/h
Temperature: 66°F , 19°C
Dew Point: 32°F , 0°C
Humidity: 28%
Barometer: 30.26 inHg , 1024.7 hPa
Clouds: Few Clouds
Visibility: 10 miles , 16 km
Cloud details: Few Clouds 8000 ft
2021/05/13 21:53 KMGW 132153Z VRB06KT 10SM FEW080 19/00 A3026 RMK AO2 SLP249 T01890000
KHLG - Wheeling, West Virginia, USA
Distance from station: W 37mi, 60km
Updated: Thu, May-13-2021 5:53pm EDT
Overcast
Overcast
 Wind from N
Wind: N 5 mph , 7 km/h
Temperature: 61°F , 16°C
Dew Point: 32°F , 0°C
Humidity: 34%
Barometer: 30.27 inHg , 1025.1 hPa
Clouds: Overcast
Visibility: 10 miles , 16 km
Cloud details: Overcast 10000 ft
2021/05/13 21:53 KHLG 132153Z 01004KT 10SM OVC100 16/00 A3027 RMK AO2 SLP258 T01610000
 
KBTP - Butler Co., Pennsylvania, USA
Distance from station: N 43mi, 69km
Updated: Thu, May-13-2021 5:56pm EDT
Mostly cloudy
Mostly cloudy
 Wind from varies
Wind: varies 7 mph , 11 km/h
Temperature: 63°F , 17°C
Dew Point: 30°F , -1°C
Humidity: 30%
Barometer: 30.27 inHg , 1025.1 hPa
Clouds: Mostly cloudy
Visibility: 10 miles , 16 km
Cloud details: Few Clouds 8000 ft
Mostly cloudy 12000 ft
2021/05/13 21:56 KBTP 132156Z AUTO VRB06KT 10SM FEW080 BKN120 17/M01 A3027 RMK AO2 RAE2058 SLP259 P0000 T01721006
KBVI - Beaver Falls Arp, Pennsylvania, USA
Distance from station: NNW 49mi, 79km
Updated: Thu, May-13-2021 6:35pm EDT
Mostly cloudy
Mostly cloudy
 Wind from NNW
Wind: NNW 7 mph , 11 km/h
Temperature: 64°F , 18°C
Dew Point: 32°F , 0°C
Humidity: 30%
Barometer: 30.27 inHg , 1025.1 hPa
Clouds: Mostly cloudy
Visibility: 10 miles , 16 km
Cloud details: Mostly cloudy 8500 ft
2021/05/13 22:35 KBVI 132235Z AUTO 34006KT 10SM BKN085 18/00 A3027 RMK AO2 T01831001
 
K2G4 - Garrett Co, Maryland, USA
Distance from station: SE 51mi, 82km
Updated: Thu, May-13-2021 5:55pm EDT
Mostly cloudy
Mostly cloudy
 Wind from NNW
Wind: NNW 5 mph , 7 km/h
Temperature: 54°F , 12°C
Dew Point: 25°F , -4°C
Humidity: 33%
Barometer: 30.26 inHg , 1024.7 hPa
Clouds: Mostly cloudy
Visibility: 10 miles , 16 km
Cloud details: Mostly cloudy 11000 ft
2021/05/13 21:55 K2G4 132155Z AUTO 33004KT 10SM BKN110 12/M04 A3026 RMK AO1
KIDI - Indiana/Stewart, Pennsylvania, USA
Distance from station: NE 56mi, 90km
Updated: Thu, May-13-2021 6:35pm EDT
Mostly cloudy
Mostly cloudy
 Wind from NW
Wind: NW 6 mph , 9 km/h
Temperature: 61°F , 16°C
Dew Point: 30°F , -1°C
Humidity: 31%
Barometer: 30.27 inHg , 1025.1 hPa
Clouds: Mostly cloudy
Visibility: 10 miles , 16 km
Cloud details: Mostly cloudy 11000 ft
2021/05/13 22:35 KIDI 132235Z AUTO 32005KT 10SM BKN110 16/M01 A3027 RMK A01
 
KJST - Johnstown, Pennsylvania, USA
Distance from station: ENE 60mi, 96km
Updated: Thu, May-13-2021 5:54pm EDT
Overcast
Overcast
 Wind from NNW
Wind: NNW 10 mph , 17 km/h
Temperature: 57°F , 14°C
Dew Point: 27°F , -3°C
Humidity: 31%
Barometer: 30.24 inHg , 1024 hPa
Clouds: Overcast
Visibility: 10 miles , 16 km
Cloud details: Few Clouds 8000 ft
Overcast 11000 ft
2021/05/13 21:54 KJST 132154Z AUTO 33009KT 10SM FEW080 OVC110 14/M03 A3024 RMK AO2 SLP244 T01441033
KCBE - Cumberland Reg, Maryland, USA
Distance from station: ESE 72mi, 116km
Updated: Thu, May-13-2021 5:55pm EDT
Partly cloudy
Partly cloudy
 Wind from NW
Wind: NW 5 mph , 7 km/h
Temperature: 64°F , 18°C
Dew Point: 30°F , -1°C
Humidity: 28%
Barometer: 30.27 inHg , 1025.1 hPa
Clouds: Partly cloudy
Visibility: 10 miles , 16 km
Cloud details: Partly cloudy 11000 ft
2021/05/13 21:55 KCBE 132155Z AUTO 31004KT 10SM SCT110 18/M01 A3027 RMK AO2 T01821008
 
KILG - Wilmington, Delaware, USA
Distance from station: ESE 234mi, 377km
Updated: Thu, May-13-2021 5:51pm EDT
Partly cloudy
Partly cloudy
 Wind from NNW
Wind: NNW 7 mph , 11 km/h
Temperature: 70°F , 21°C
Dew Point: 28°F , -2°C
Humidity: 21%
Barometer: 30.18 inHg , 1022 hPa
Clouds: Partly cloudy
Visibility: 10 miles , 16 km
Cloud details: Partly cloudy 10000 ft
2021/05/13 21:51 KILG 132151Z 33006KT 10SM SCT100 21/M02 A3018 RMK AO2 SLP218 T02111017
KTUS - Tucson, Arizona, USA
Distance from station: WSW 1806mi, 3283km
Updated: Thu, May-13-2021 5:53pm EDT
Clear
Clear
 Wind from WNW
Wind: WNW 9 mph , 15 km/h, Gust: 22 mph , 35 km/h
Temperature: 99°F , 37°C
Dew Point: 7°F , -14°C
Humidity: 3%
Barometer: 29.96 inHg , 1014.6 hPa
Clouds: Clear
Visibility: 10 miles , 16 km
2021/05/13 21:53 KTUS 132153Z 30008G19KT 10SM CLR 37/M14 A2996 RMK AO2 SLP095 T03671144 $